createdAt,value
2018-04-19T00:01:55.699Z,12.30
2018-04-19T00:04:21.815Z,12.30
2018-04-19T00:06:47.886Z,12.20
2018-04-19T00:09:13.992Z,12.10
2018-04-19T00:11:40.095Z,12.10
2018-04-19T00:14:06.171Z,12.00
2018-04-19T00:16:32.286Z,12.00
2018-04-19T00:18:58.382Z,12.00
2018-04-19T00:21:24.501Z,12.00
2018-04-19T00:23:50.622Z,12.00
2018-04-19T00:26:16.730Z,11.80
2018-04-19T00:28:42.861Z,11.80
2018-04-19T00:31:08.974Z,11.80
2018-04-19T00:33:35.120Z,11.90
2018-04-19T00:36:01.231Z,11.90
2018-04-19T00:38:27.337Z,12.00
2018-04-19T00:40:53.524Z,11.90
2018-04-19T00:43:19.664Z,12.00
2018-04-19T00:45:45.856Z,11.90
2018-04-19T00:48:11.943Z,11.80
2018-04-19T00:50:38.060Z,11.80
2018-04-19T00:53:08.085Z,11.70
2018-04-19T00:55:34.207Z,11.80
2018-04-19T00:58:00.306Z,11.70
2018-04-19T01:00:26.395Z,11.70
2018-04-19T01:02:52.501Z,11.70
2018-04-19T01:05:19.327Z,11.80
2018-04-19T01:07:45.460Z,11.80
2018-04-19T01:10:11.560Z,11.90
2018-04-19T01:12:37.630Z,12.00
2018-04-19T01:15:04.504Z,11.90
2018-04-19T01:17:30.626Z,11.90
2018-04-19T01:19:56.779Z,11.80
2018-04-19T01:22:23.313Z,11.70
2018-04-19T01:24:49.428Z,11.60
2018-04-19T01:27:15.560Z,11.60
2018-04-19T01:29:41.685Z,11.40
2018-04-19T01:32:07.822Z,11.40
2018-04-19T01:34:33.924Z,11.50
2018-04-19T01:37:00.030Z,11.50
2018-04-19T01:39:26.126Z,11.60
2018-04-19T01:41:52.219Z,11.70
2018-04-19T01:44:18.453Z,11.70
2018-04-19T01:46:44.548Z,11.70
2018-04-19T01:49:10.659Z,11.80
2018-04-19T01:51:36.734Z,11.80
2018-04-19T01:54:02.814Z,11.80
2018-04-19T01:56:28.923Z,11.70
2018-04-19T01:58:55.746Z,11.70
2018-04-19T02:01:21.876Z,11.70
2018-04-19T02:03:48.250Z,11.80
2018-04-19T02:06:15.090Z,12.00
2018-04-19T02:08:41.170Z,12.00
2018-04-19T02:11:07.293Z,12.20
2018-04-19T02:13:33.432Z,12.50
2018-04-19T02:16:00.539Z,12.70
2018-04-19T02:18:26.631Z,12.80
2018-04-19T02:20:52.729Z,12.80
2018-04-19T02:23:18.812Z,12.90
2018-04-19T02:25:44.916Z,12.90
2018-04-19T02:28:11.050Z,13.10
2018-04-19T02:30:37.151Z,13.10
2018-04-19T02:33:03.260Z,13.10
2018-04-19T02:35:29.349Z,13.10
2018-04-19T02:37:55.440Z,13.00
2018-04-19T02:40:21.581Z,12.90
2018-04-19T02:42:47.700Z,12.80
2018-04-19T02:45:13.812Z,12.60
2018-04-19T02:47:39.891Z,12.50
2018-04-19T02:50:06.736Z,12.30
2018-04-19T02:52:32.847Z,12.30
2018-04-19T02:54:58.988Z,12.20
2018-04-19T02:57:25.145Z,12.20
2018-04-19T02:59:51.291Z,12.20
2018-04-19T03:02:32.342Z,12.40
2018-04-19T03:04:58.433Z,12.40
2018-04-19T03:07:25.576Z,12.30
2018-04-19T03:09:51.654Z,12.20
2018-04-19T03:12:17.748Z,12.30
2018-04-19T03:14:43.851Z,12.30
2018-04-19T03:17:09.973Z,12.20
2018-04-19T03:19:36.088Z,12.10
2018-04-19T03:22:02.211Z,11.70
2018-04-19T03:24:28.370Z,11.40
2018-04-19T03:26:54.481Z,11.30
2018-04-19T03:29:20.991Z,11.10
2018-04-19T03:31:47.125Z,10.90
2018-04-19T03:34:13.203Z,10.70
2018-04-19T03:36:39.303Z,10.50
2018-04-19T03:39:05.450Z,10.40
2018-04-19T03:41:31.534Z,10.20
2018-04-19T03:43:57.687Z,10.10
2018-04-19T03:46:23.826Z,10.10
2018-04-19T03:48:49.988Z,10.10
2018-04-19T03:51:16.105Z,10.10
2018-04-19T03:53:42.217Z,10.00
2018-04-19T03:56:08.322Z,9.80
2018-04-19T03:58:34.426Z,9.80
2018-04-19T04:03:55.112Z,9.60
2018-04-19T04:06:21.203Z,9.50
2018-04-19T04:08:47.293Z,9.40
2018-04-19T04:11:14.154Z,9.20
2018-04-19T04:13:40.903Z,9.20
2018-04-19T04:16:07.030Z,9.10
2018-04-19T04:18:51.753Z,9.10
2018-04-19T04:21:17.875Z,9.00
2018-04-19T04:23:50.758Z,8.90
2018-04-19T04:26:16.882Z,9.00
2018-04-19T04:28:42.946Z,8.90
2018-04-19T04:31:09.085Z,8.90
2018-04-19T04:33:35.174Z,9.00
2018-04-19T04:36:01.328Z,9.10
2018-04-19T04:38:27.426Z,9.10
2018-04-19T04:40:53.968Z,9.10
2018-04-19T04:43:20.096Z,9.10
2018-04-19T04:45:46.189Z,9.20
2018-04-19T04:48:12.279Z,9.20
2018-04-19T04:50:38.380Z,9.20
2018-04-19T04:53:04.481Z,9.20
2018-04-19T04:55:30.598Z,9.30
2018-04-19T04:57:56.716Z,9.10
2018-04-19T05:00:22.816Z,9.20
2018-04-19T05:02:48.903Z,9.30
2018-04-19T05:05:15.785Z,9.40
2018-04-19T05:07:41.858Z,9.40
2018-04-19T05:10:07.955Z,9.40
2018-04-19T05:12:34.369Z,9.50
2018-04-19T05:15:00.459Z,9.50
2018-04-19T05:17:26.558Z,9.50
2018-04-19T05:19:52.632Z,9.60
2018-04-19T05:22:18.808Z,9.70
2018-04-19T05:24:44.905Z,10.00
2018-04-19T05:27:10.994Z,10.10
2018-04-19T05:29:37.148Z,10.20
2018-04-19T05:32:03.289Z,10.30
2018-04-19T05:34:30.217Z,10.50
2018-04-19T05:36:56.320Z,10.50
2018-04-19T05:39:22.458Z,10.70
2018-04-19T05:41:48.556Z,10.70
2018-04-19T05:44:15.416Z,10.80
2018-04-19T05:46:41.816Z,10.80
2018-04-19T05:49:07.891Z,10.80
2018-04-19T05:51:34.126Z,10.80
2018-04-19T05:54:00.257Z,10.80
2018-04-19T05:56:28.102Z,10.90
2018-04-19T05:58:55.001Z,11.00
2018-04-19T06:01:21.127Z,11.00
2018-04-19T06:03:47.230Z,11.20
2018-04-19T06:06:13.737Z,11.30
2018-04-19T06:08:39.904Z,11.70
2018-04-19T06:11:06.037Z,12.10
2018-04-19T06:13:32.162Z,12.40
2018-04-19T06:15:58.318Z,12.50
2018-04-19T06:18:24.434Z,12.70
2018-04-19T06:20:50.560Z,12.80
2018-04-19T06:23:16.710Z,13.00
2018-04-19T06:25:42.824Z,13.10
2018-04-19T06:28:08.986Z,13.20
2018-04-19T06:30:35.086Z,13.30
2018-04-19T06:33:01.183Z,13.40
2018-04-19T06:35:27.327Z,13.50
2018-04-19T06:37:53.436Z,13.50
2018-04-19T06:40:19.564Z,13.60
2018-04-19T06:42:45.756Z,13.70
2018-04-19T06:45:11.909Z,13.80
2018-04-19T06:47:38.042Z,14.00
2018-04-19T06:50:04.171Z,14.20
2018-04-19T06:52:30.284Z,14.40
2018-04-19T06:54:56.488Z,14.60
2018-04-19T06:57:23.858Z,14.90
2018-04-19T07:02:43.347Z,15.10
2018-04-19T07:05:09.508Z,15.40
2018-04-19T07:07:35.638Z,15.60
2018-04-19T07:10:01.761Z,15.90
2018-04-19T07:12:27.868Z,16.20
2018-04-19T07:14:54.020Z,16.30
2018-04-19T07:17:20.155Z,16.40
2018-04-19T07:19:46.263Z,16.50
2018-04-19T07:22:12.400Z,16.80
2018-04-19T07:24:38.513Z,16.90
2018-04-19T07:27:04.640Z,17.10
2018-04-19T07:29:30.746Z,17.20
2018-04-19T07:31:56.834Z,17.30
2018-04-19T07:34:22.956Z,17.40
2018-04-19T07:36:49.049Z,17.70
2018-04-19T07:39:15.200Z,18.00
2018-04-19T07:41:41.324Z,18.10
2018-04-19T07:44:07.435Z,18.30
2018-04-19T07:46:33.555Z,18.50
2018-04-19T07:48:59.779Z,18.60
2018-04-19T07:51:25.932Z,18.70
2018-04-19T07:53:52.052Z,18.90
2018-04-19T07:56:18.172Z,19.10
2018-04-19T07:58:44.296Z,19.90
2018-04-19T08:01:10.382Z,22.50
2018-04-19T08:03:36.491Z,24.40
2018-04-19T08:06:02.851Z,25.80
2018-04-19T08:08:29.002Z,25.70
2018-04-19T08:10:55.856Z,26.60
2018-04-19T08:13:21.971Z,26.40
2018-04-19T08:15:48.818Z,27.50
2018-04-19T08:18:14.983Z,27.40
2018-04-19T08:20:41.124Z,27.50
2018-04-19T08:23:07.302Z,27.40
2018-04-19T08:25:33.373Z,27.60
2018-04-19T08:27:59.639Z,27.80
2018-04-19T08:30:25.819Z,28.30
2018-04-19T08:32:51.956Z,28.30
2018-04-19T08:35:18.060Z,28.50
2018-04-19T08:37:44.895Z,27.70
2018-04-19T08:40:10.999Z,27.60
2018-04-19T08:42:37.107Z,27.70
2018-04-19T08:45:03.198Z,28.30
2018-04-19T08:47:29.296Z,28.50
2018-04-19T08:49:55.415Z,28.60
2018-04-19T08:52:21.538Z,28.80
2018-04-19T08:54:47.616Z,28.70
2018-04-19T08:57:13.718Z,28.30
2018-04-19T08:59:39.876Z,28.60
2018-04-19T09:02:06.004Z,29.10
2018-04-19T09:04:32.121Z,29.40
2018-04-19T09:06:58.248Z,30.00
2018-04-19T09:09:24.370Z,29.90
2018-04-19T09:11:51.379Z,30.40
2018-04-19T09:14:17.496Z,30.70
2018-04-19T09:16:43.604Z,30.90
2018-04-19T09:19:09.727Z,31.30
2018-04-19T09:21:35.907Z,31.40
2018-04-19T09:24:02.016Z,31.90
2018-04-19T09:26:28.192Z,32.30
2018-04-19T09:28:54.409Z,32.90
2018-04-19T09:31:20.512Z,33.30
2018-04-19T09:33:46.607Z,34.10
2018-04-19T09:36:12.730Z,34.50
2018-04-19T09:38:38.811Z,34.80
2018-04-19T09:41:04.944Z,34.90
2018-04-19T09:43:32.446Z,35.30
2018-04-19T09:45:58.571Z,35.10
2018-04-19T09:48:24.660Z,35.40
2018-04-19T09:50:50.770Z,36.40
2018-04-19T09:53:16.900Z,37.50
2018-04-19T09:55:42.999Z,38.10
2018-04-19T09:58:09.105Z,38.30
2018-04-19T10:00:41.174Z,38.00
2018-04-19T10:03:14.027Z,38.50
2018-04-19T10:05:46.142Z,38.50
2018-04-19T10:08:17.446Z,37.80
2018-04-19T10:10:43.633Z,38.70
2018-04-19T10:13:10.124Z,39.00
2018-04-19T10:15:36.258Z,39.60
2018-04-19T10:18:02.387Z,39.00
2018-04-19T10:20:28.507Z,39.50
2018-04-19T10:22:54.593Z,39.50
2018-04-19T10:25:20.699Z,40.30
2018-04-19T10:27:47.539Z,40.30
2018-04-19T10:30:13.627Z,40.40
2018-04-19T10:32:39.734Z,40.70
2018-04-19T10:35:05.880Z,39.80
2018-04-19T10:37:31.972Z,38.70
2018-04-19T10:39:58.879Z,40.00
2018-04-19T10:42:24.986Z,40.00
2018-04-19T10:44:51.082Z,40.80
2018-04-19T10:47:17.183Z,41.60
2018-04-19T10:49:43.276Z,40.60
2018-04-19T10:52:09.366Z,40.30
2018-04-19T10:54:35.474Z,41.30
2018-04-19T10:57:01.586Z,41.50
2018-04-19T10:59:27.725Z,42.10
2018-04-19T11:01:53.857Z,40.70
2018-04-19T11:04:19.939Z,41.30
2018-04-19T11:06:46.766Z,41.10
2018-04-19T11:09:12.834Z,41.00
2018-04-19T11:11:38.918Z,41.50
2018-04-19T11:14:05.020Z,41.30
2018-04-19T11:16:31.141Z,41.60
2018-04-19T11:18:57.779Z,42.30
2018-04-19T11:21:23.908Z,42.00
2018-04-19T11:23:50.031Z,42.20
2018-04-19T11:26:16.176Z,43.00
2018-04-19T11:28:42.312Z,43.60
2018-04-19T11:31:08.415Z,43.00
2018-04-19T11:33:34.508Z,43.50
2018-04-19T11:36:00.596Z,42.80
2018-04-19T11:38:26.693Z,43.40
2018-04-19T11:40:53.570Z,43.90
2018-04-19T11:43:20.523Z,43.80
2018-04-19T11:45:46.628Z,43.20
2018-04-19T11:48:13.457Z,42.50
2018-04-19T11:50:40.331Z,42.50
2018-04-19T11:53:06.464Z,42.40
2018-04-19T11:55:32.567Z,43.20
2018-04-19T11:57:58.670Z,44.00
2018-04-19T12:00:24.799Z,43.70
2018-04-19T12:02:50.913Z,42.90
2018-04-19T12:05:17.018Z,42.80
2018-04-19T12:07:43.224Z,42.60
2018-04-19T12:10:09.370Z,42.70
2018-04-19T12:12:35.481Z,42.80
2018-04-19T12:15:01.577Z,43.60
2018-04-19T12:17:27.690Z,43.60
2018-04-19T12:19:53.914Z,43.40
2018-04-19T12:22:20.045Z,43.60
2018-04-19T12:24:46.147Z,42.80
2018-04-19T12:27:12.317Z,43.20
2018-04-19T12:29:38.447Z,43.60
2018-04-19T12:32:04.595Z,42.50
2018-04-19T12:34:30.674Z,42.00
2018-04-19T12:36:56.799Z,41.50
2018-04-19T12:39:22.889Z,41.80
2018-04-19T12:41:48.978Z,42.50
2018-04-19T12:44:15.090Z,43.30
2018-04-19T12:46:41.200Z,43.50
2018-04-19T12:49:07.356Z,44.00
2018-04-19T12:51:33.463Z,42.60
2018-04-19T12:53:59.563Z,42.40
2018-04-19T12:56:25.772Z,42.80
2018-04-19T12:58:51.857Z,43.20
2018-04-19T13:01:17.957Z,43.40
2018-04-19T13:03:44.055Z,43.00
2018-04-19T13:06:10.154Z,42.20
2018-04-19T13:08:36.245Z,42.20
2018-04-19T13:11:02.395Z,42.40
2018-04-19T13:13:28.536Z,41.30
2018-04-19T13:15:55.203Z,41.30
2018-04-19T13:18:21.373Z,41.80
2018-04-19T13:20:47.528Z,41.40
2018-04-19T13:23:13.641Z,40.90
2018-04-19T13:25:39.899Z,40.60
2018-04-19T13:28:06.004Z,41.30
2018-04-19T13:30:32.131Z,40.20
2018-04-19T13:32:58.970Z,40.50
2018-04-19T13:35:25.110Z,40.50
2018-04-19T13:37:51.261Z,40.40
2018-04-19T13:40:17.375Z,40.20
2018-04-19T13:42:43.528Z,40.70
2018-04-19T13:45:09.648Z,41.70
2018-04-19T13:47:35.735Z,41.70
2018-04-19T13:50:01.875Z,41.90
2018-04-19T13:52:28.002Z,41.30
2018-04-19T13:54:54.158Z,41.80
2018-04-19T13:57:20.190Z,41.80
2018-04-19T13:59:47.026Z,41.90
2018-04-19T14:02:14.250Z,42.20
2018-04-19T14:04:40.345Z,42.10
2018-04-19T14:07:06.481Z,42.30
2018-04-19T14:09:32.584Z,41.80
2018-04-19T14:11:58.655Z,41.10
2018-04-19T14:14:24.722Z,41.00
2018-04-19T14:16:50.811Z,41.70
2018-04-19T14:19:16.944Z,41.60
2018-04-19T14:21:43.038Z,42.10
2018-04-19T14:24:09.855Z,42.50
2018-04-19T14:26:35.964Z,42.40
2018-04-19T14:29:02.047Z,43.20
2018-04-19T14:31:28.897Z,43.70
2018-04-19T14:33:54.977Z,43.70
2018-04-19T14:36:21.091Z,43.70
2018-04-19T14:38:47.221Z,43.40
2018-04-19T14:41:13.335Z,43.70
2018-04-19T14:43:40.173Z,43.20
2018-04-19T14:46:07.006Z,42.50
2018-04-19T14:48:33.078Z,42.40
2018-04-19T14:50:59.256Z,41.50
2018-04-19T14:53:25.373Z,40.70
2018-04-19T14:55:51.449Z,41.20
2018-04-19T14:58:17.601Z,42.10
2018-04-19T15:00:43.759Z,42.80
2018-04-19T15:03:09.850Z,43.00
2018-04-19T15:05:35.939Z,43.50
2018-04-19T15:08:02.030Z,43.70
2018-04-19T15:10:28.135Z,43.50
2018-04-19T15:12:54.212Z,43.80
2018-04-19T15:15:20.296Z,44.10
2018-04-19T15:17:46.397Z,44.10
2018-04-19T15:20:12.496Z,44.90
2018-04-19T15:22:38.635Z,44.70
2018-04-19T15:25:04.720Z,44.70
2018-04-19T15:27:30.802Z,44.50
2018-04-19T15:29:56.916Z,44.30
2018-04-19T15:32:23.068Z,43.50
2018-04-19T15:34:49.210Z,43.70
2018-04-19T15:37:15.301Z,43.90
2018-04-19T15:39:41.418Z,44.10
2018-04-19T15:42:07.533Z,44.40
2018-04-19T15:44:34.368Z,44.40
2018-04-19T15:47:01.231Z,44.10
2018-04-19T15:49:27.326Z,44.10
2018-04-19T15:51:53.398Z,44.10
2018-04-19T15:54:19.489Z,44.20
2018-04-19T15:56:45.607Z,44.10
2018-04-19T15:59:11.716Z,43.80
2018-04-19T16:01:37.802Z,43.10
2018-04-19T16:04:03.929Z,42.90
2018-04-19T16:06:30.813Z,43.10
2018-04-19T16:08:56.895Z,43.10
2018-04-19T16:11:22.998Z,43.20
2018-04-19T16:13:49.115Z,43.10
2018-04-19T16:16:15.723Z,43.10
2018-04-19T16:18:41.814Z,42.80
2018-04-19T16:21:08.102Z,43.00
2018-04-19T16:23:34.220Z,43.10
2018-04-19T16:26:01.056Z,43.20
2018-04-19T16:28:27.159Z,43.10
2018-04-19T16:30:53.278Z,43.30
2018-04-19T16:33:19.381Z,43.60
2018-04-19T16:35:45.513Z,43.40
2018-04-19T16:38:11.645Z,43.00
2018-04-19T16:40:37.772Z,42.90
2018-04-19T16:43:05.204Z,42.90
2018-04-19T16:45:31.426Z,42.70
2018-04-19T16:47:57.571Z,42.80
2018-04-19T16:50:23.712Z,43.10
2018-04-19T16:52:49.865Z,42.90
2018-04-19T16:55:16.971Z,42.70
2018-04-19T16:57:43.074Z,42.30
2018-04-19T17:00:09.180Z,41.90
2018-04-19T17:02:35.312Z,42.10
2018-04-19T17:05:01.404Z,41.90
2018-04-19T17:07:27.578Z,41.80
2018-04-19T17:09:53.842Z,41.70
2018-04-19T17:12:21.075Z,41.70
2018-04-19T17:14:47.231Z,41.70
2018-04-19T17:17:13.411Z,41.00
2018-04-19T17:19:40.285Z,40.10
2018-04-19T17:22:06.371Z,40.10
2018-04-19T17:24:33.258Z,39.80
2018-04-19T17:26:59.369Z,39.80
2018-04-19T17:29:25.527Z,39.50
2018-04-19T17:31:51.594Z,39.10
2018-04-19T17:34:17.750Z,39.20
2018-04-19T17:36:43.923Z,38.90
2018-04-19T17:39:10.036Z,38.60
2018-04-19T17:41:36.178Z,38.30
2018-04-19T17:44:02.294Z,38.20
2018-04-19T17:46:29.146Z,37.70
2018-04-19T17:48:57.555Z,37.30
2018-04-19T17:51:23.636Z,37.30
2018-04-19T17:53:49.859Z,37.00
2018-04-19T17:56:15.983Z,36.70
2018-04-19T17:58:42.118Z,36.30
2018-04-19T18:01:08.239Z,35.70
2018-04-19T18:03:35.110Z,35.00
2018-04-19T18:06:01.244Z,35.00
2018-04-19T18:08:27.347Z,34.40
2018-04-19T18:10:53.467Z,33.70
2018-04-19T18:13:19.555Z,33.00
2018-04-19T18:15:45.751Z,32.00
2018-04-19T18:18:11.904Z,31.10
2018-04-19T18:20:38.751Z,29.40
2018-04-19T18:23:05.659Z,28.70
2018-04-19T18:25:31.851Z,28.60
2018-04-19T18:27:58.703Z,28.10
2018-04-19T18:30:24.806Z,27.40
2018-04-19T18:32:50.991Z,26.90
2018-04-19T18:35:17.122Z,26.40
2018-04-19T18:37:43.983Z,25.50
2018-04-19T18:40:10.149Z,25.40
2018-04-19T18:42:36.320Z,25.00
2018-04-19T18:45:02.437Z,24.60
2018-04-19T18:47:29.300Z,23.80
2018-04-19T18:49:55.403Z,23.80
2018-04-19T18:52:22.237Z,23.10
2018-04-19T18:54:48.318Z,23.00
2018-04-19T18:57:14.423Z,22.70
2018-04-19T18:59:41.122Z,22.40
2018-04-19T19:02:07.211Z,22.10
2018-04-19T19:04:34.099Z,21.60
2018-04-19T19:07:00.195Z,21.50
2018-04-19T19:09:26.274Z,21.30
2018-04-19T19:11:52.446Z,21.10
2018-04-19T19:14:18.609Z,21.00
2018-04-19T19:16:44.738Z,20.90
2018-04-19T19:19:29.284Z,20.70
2018-04-19T19:21:55.670Z,20.60
2018-04-19T19:24:21.769Z,20.50
2018-04-19T19:26:47.905Z,20.30
2018-04-19T19:29:14.034Z,20.20
2018-04-19T19:31:40.166Z,20.10
2018-04-19T19:34:06.251Z,19.90
2018-04-19T19:36:33.099Z,19.70
2018-04-19T19:38:59.985Z,19.60
2018-04-19T19:41:26.091Z,19.60
2018-04-19T19:43:52.193Z,19.50
2018-04-19T19:46:18.324Z,19.40
2018-04-19T19:48:44.409Z,19.30
2018-04-19T19:51:10.535Z,19.10
2018-04-19T19:53:36.636Z,19.00
2018-04-19T19:56:02.755Z,18.90
2018-04-19T19:58:28.875Z,18.70
2018-04-19T20:00:55.726Z,18.40
2018-04-19T20:03:21.855Z,18.40
2018-04-19T20:05:48.455Z,18.40
2018-04-19T20:08:15.268Z,18.40
2018-04-19T20:10:41.367Z,18.40
2018-04-19T20:13:07.450Z,18.40
2018-04-19T20:15:33.540Z,18.40
2018-04-19T20:17:59.628Z,18.40
2018-04-19T20:20:25.843Z,18.40
2018-04-19T20:22:52.026Z,18.40
2018-04-19T20:25:18.198Z,18.50
2018-04-19T20:27:44.320Z,18.60
2018-04-19T20:30:10.443Z,18.60
2018-04-19T20:32:36.532Z,18.60
2018-04-19T20:35:02.690Z,18.30
2018-04-19T20:37:29.620Z,17.80
2018-04-19T20:39:55.807Z,17.80
2018-04-19T20:42:21.899Z,17.70
2018-04-19T20:44:47.998Z,17.60
2018-04-19T20:47:14.116Z,17.50
2018-04-19T20:49:40.213Z,17.40
2018-04-19T20:52:06.560Z,17.40
2018-04-19T20:54:32.640Z,17.40
2018-04-19T20:56:58.738Z,17.30
2018-04-19T20:59:24.832Z,17.20
2018-04-19T21:01:50.972Z,17.10
2018-04-19T21:04:17.829Z,16.90
2018-04-19T21:06:43.959Z,16.80
2018-04-19T21:09:10.256Z,16.90
2018-04-19T21:11:36.346Z,16.80
2018-04-19T21:14:02.432Z,16.80
2018-04-19T21:16:28.532Z,16.80
2018-04-19T21:18:54.619Z,16.70
2018-04-19T21:21:20.776Z,16.70
2018-04-19T21:23:46.885Z,16.60
2018-04-19T21:26:13.022Z,16.60
2018-04-19T21:28:39.104Z,16.50
2018-04-19T21:31:05.230Z,16.40
2018-04-19T21:33:31.321Z,16.40
2018-04-19T21:35:57.430Z,16.40
2018-04-19T21:38:24.246Z,16.30
2018-04-19T21:40:50.327Z,16.30
2018-04-19T21:43:16.410Z,16.20
2018-04-19T21:45:42.504Z,16.10
2018-04-19T21:48:08.616Z,15.90
2018-04-19T21:50:34.729Z,15.70
2018-04-19T21:53:00.847Z,15.70
2018-04-19T21:55:27.038Z,15.70
2018-04-19T21:57:53.155Z,15.70
2018-04-19T22:00:19.332Z,15.60
2018-04-19T22:02:45.803Z,15.50
2018-04-19T22:05:12.622Z,15.50
2018-04-19T22:07:38.738Z,15.50
2018-04-19T22:10:04.881Z,15.70
2018-04-19T22:12:30.969Z,15.90
2018-04-19T22:14:57.062Z,16.10
2018-04-19T22:17:23.170Z,16.20
2018-04-19T22:19:49.287Z,16.40
2018-04-19T22:22:15.392Z,16.40
2018-04-19T22:24:41.478Z,16.20
2018-04-19T22:27:07.591Z,16.00
2018-04-19T22:29:33.694Z,15.90
2018-04-19T22:31:59.762Z,15.80
2018-04-19T22:34:25.889Z,15.70
2018-04-19T22:36:52.001Z,15.50
2018-04-19T22:39:18.080Z,15.50
2018-04-19T22:41:44.914Z,15.20
2018-04-19T22:44:11.734Z,15.10
2018-04-19T22:46:37.842Z,15.10
2018-04-19T22:49:03.949Z,15.00
2018-04-19T22:51:30.090Z,15.00
2018-04-19T22:53:56.178Z,14.90
2018-04-19T22:56:22.262Z,14.80
2018-04-19T22:58:48.346Z,14.70
2018-04-19T23:01:14.458Z,14.60
2018-04-19T23:03:40.530Z,14.60
2018-04-19T23:06:06.624Z,14.60
2018-04-19T23:08:32.714Z,14.90
2018-04-19T23:10:58.887Z,15.10
2018-04-19T23:13:24.959Z,15.40
2018-04-19T23:15:51.046Z,15.90
2018-04-19T23:18:17.137Z,16.40
2018-04-19T23:20:43.233Z,16.70
2018-04-19T23:23:10.085Z,17.40
2018-04-19T23:25:36.181Z,17.40
2018-04-19T23:28:02.322Z,17.70
2018-04-19T23:30:28.394Z,17.90
2018-04-19T23:32:54.488Z,18.10
2018-04-19T23:35:20.611Z,18.40
2018-04-19T23:37:46.707Z,18.40
2018-04-19T23:40:12.836Z,18.30
2018-04-19T23:42:38.951Z,18.20
2018-04-19T23:45:05.037Z,18.20
2018-04-19T23:47:31.138Z,18.10
2018-04-19T23:49:57.223Z,18.00
2018-04-19T23:52:23.301Z,18.00
2018-04-19T23:54:49.405Z,18.10
2018-04-19T23:57:15.512Z,18.00
2018-04-19T23:59:42.356Z,17.80
